createdAt,value
2023-02-11T00:02:09.222Z,80.38
2023-02-11T00:04:35.593Z,80.18
2023-02-11T00:07:02.074Z,80.17
2023-02-11T00:09:30.902Z,80.12
2023-02-11T00:11:58.133Z,80.14
2023-02-11T00:14:24.462Z,79.98
2023-02-11T00:16:50.806Z,80.07
2023-02-11T00:19:17.179Z,80.11
2023-02-11T00:21:43.643Z,80.06
2023-02-11T00:24:10.055Z,80.23
2023-02-11T00:26:36.544Z,79.86
2023-02-11T00:29:04.672Z,80.21
2023-02-11T00:31:31.362Z,79.95
2023-02-11T00:33:57.846Z,80.17
2023-02-11T00:36:26.891Z,80.06
2023-02-11T00:38:54.956Z,80.04
2023-02-11T00:41:22.123Z,80.61
2023-02-11T00:43:48.975Z,80.18
2023-02-11T00:46:17.360Z,80.00
2023-02-11T00:48:43.811Z,80.03
2023-02-11T00:51:10.415Z,80.01
2023-02-11T00:53:37.501Z,79.92
2023-02-11T00:56:04.442Z,79.85
2023-02-11T00:58:31.396Z,79.60
2023-02-11T01:00:57.793Z,79.45
2023-02-11T01:03:24.839Z,79.39
2023-02-11T01:05:51.912Z,79.66
2023-02-11T01:08:18.914Z,79.59
2023-02-11T01:10:45.343Z,79.59
2023-02-11T01:13:11.783Z,79.63
2023-02-11T01:15:38.165Z,79.60
2023-02-11T01:18:05.922Z,79.71
2023-02-11T01:20:32.276Z,79.48
2023-02-11T01:22:58.666Z,79.09
2023-02-11T01:25:25.043Z,79.38
2023-02-11T01:27:51.405Z,79.70
2023-02-11T01:30:17.752Z,79.29
2023-02-11T01:32:46.061Z,79.44
2023-02-11T01:35:12.441Z,79.33
2023-02-11T01:37:38.798Z,79.42
2023-02-11T01:40:08.470Z,79.46
2023-02-11T01:42:34.909Z,79.38
2023-02-11T01:45:21.891Z,78.83
2023-02-11T01:47:48.289Z,79.24
2023-02-11T01:50:14.842Z,79.09
2023-02-11T01:52:42.502Z,79.26
2023-02-11T01:55:30.829Z,79.44
2023-02-11T01:58:02.318Z,79.38
2023-02-11T02:00:36.621Z,79.32
2023-02-11T02:03:07.911Z,79.38
2023-02-11T02:05:48.274Z,79.87
2023-02-11T02:08:14.799Z,79.29
2023-02-11T02:10:45.678Z,79.43
2023-02-11T02:13:12.955Z,79.62
2023-02-11T02:15:44.597Z,79.12
2023-02-11T02:18:50.970Z,79.64
2023-02-11T02:21:51.285Z,79.62
2023-02-11T02:24:41.862Z,79.32
2023-02-11T02:27:27.724Z,79.59
2023-02-11T02:30:11.057Z,79.61
2023-02-11T02:32:54.086Z,79.73
2023-02-11T02:35:33.229Z,79.65
2023-02-11T02:38:13.213Z,79.88
2023-02-11T02:40:51.711Z,79.80
2023-02-11T02:43:19.164Z,79.67
2023-02-11T02:45:45.580Z,79.87
2023-02-11T02:48:33.042Z,79.81
2023-02-11T02:51:27.179Z,80.14
2023-02-11T02:54:24.286Z,80.26
2023-02-11T02:56:55.419Z,80.03
2023-02-11T02:59:53.852Z,80.22
2023-02-11T03:02:31.289Z,80.38
2023-02-11T03:05:06.063Z,80.49
2023-02-11T03:07:43.901Z,80.09
2023-02-11T03:10:20.011Z,80.14
2023-02-11T03:12:48.304Z,80.24
2023-02-11T03:15:17.097Z,80.23
2023-02-11T03:17:49.717Z,80.52
2023-02-11T03:20:18.750Z,80.53
2023-02-11T03:22:53.762Z,80.55
2023-02-11T03:25:21.154Z,80.61
2023-02-11T03:27:53.298Z,80.67
2023-02-11T03:30:22.623Z,80.95
2023-02-11T03:32:52.446Z,81.13
2023-02-11T03:35:25.009Z,81.23
2023-02-11T03:38:06.642Z,81.76
2023-02-11T03:40:38.174Z,82.26
2023-02-11T03:43:10.913Z,82.33
2023-02-11T03:45:38.327Z,82.95
2023-02-11T03:48:27.850Z,83.09
2023-02-11T03:50:55.384Z,83.36
2023-02-11T03:53:22.897Z,83.36
2023-02-11T03:55:51.848Z,84.06
2023-02-11T03:58:18.542Z,84.75
2023-02-11T04:00:45.082Z,85.34
2023-02-11T04:03:12.594Z,85.68
2023-02-11T04:05:39.365Z,86.69
2023-02-11T04:08:05.938Z,86.82
2023-02-11T04:10:32.696Z,87.35
2023-02-11T04:12:59.091Z,87.54
2023-02-11T04:15:25.579Z,87.74
2023-02-11T04:17:51.996Z,88.05
2023-02-11T04:20:18.479Z,87.64
2023-02-11T04:22:44.833Z,87.85
2023-02-11T04:25:11.221Z,87.96
2023-02-11T04:27:37.806Z,87.72
2023-02-11T04:30:05.982Z,88.05
2023-02-11T04:32:32.382Z,87.86
2023-02-11T04:34:58.751Z,87.79
2023-02-11T04:37:25.143Z,88.22
2023-02-11T04:39:51.496Z,87.65
2023-02-11T04:42:17.858Z,87.54
2023-02-11T04:44:44.269Z,87.29
2023-02-11T04:47:12.603Z,87.27
2023-02-11T04:49:39.262Z,87.55
2023-02-11T04:52:05.821Z,87.04
2023-02-11T04:54:32.197Z,87.38
2023-02-11T04:56:58.585Z,87.43
2023-02-11T04:59:25.047Z,87.07
2023-02-11T05:01:51.440Z,87.00
2023-02-11T05:04:18.290Z,87.49
2023-02-11T05:06:44.863Z,86.95
2023-02-11T05:09:12.932Z,86.94
2023-02-11T05:11:39.995Z,87.28
2023-02-11T05:14:06.955Z,86.91
2023-02-11T05:16:33.925Z,86.69
2023-02-11T05:19:00.603Z,87.32
2023-02-11T05:21:27.010Z,87.17
2023-02-11T05:23:53.501Z,87.07
2023-02-11T05:26:19.892Z,86.44
2023-02-11T05:28:46.428Z,87.24
2023-02-11T05:31:14.520Z,87.07
2023-02-11T05:33:41.502Z,86.89
2023-02-11T05:36:10.384Z,86.92
2023-02-11T05:38:37.734Z,87.22
2023-02-11T05:41:05.507Z,87.04
2023-02-11T05:43:31.904Z,87.06
2023-02-11T05:45:58.308Z,87.10
2023-02-11T05:48:24.700Z,87.05
2023-02-11T05:50:51.084Z,87.21
2023-02-11T05:53:17.461Z,87.27
2023-02-11T05:55:43.989Z,87.22
2023-02-11T05:58:10.380Z,87.36
2023-02-11T06:00:37.478Z,87.27
2023-02-11T06:03:04.483Z,87.57
2023-02-11T06:05:31.464Z,87.04
2023-02-11T06:07:58.145Z,87.56
2023-02-11T06:10:24.509Z,87.41
2023-02-11T06:12:50.883Z,87.68
2023-02-11T06:15:17.273Z,87.38
2023-02-11T06:17:43.641Z,87.63
2023-02-11T06:20:10.927Z,87.65
2023-02-11T06:22:37.575Z,87.98
2023-02-11T06:25:04.383Z,88.01
2023-02-11T06:27:30.837Z,88.15
2023-02-11T06:29:57.253Z,87.71
2023-02-11T06:32:42.799Z,87.81
2023-02-11T06:35:12.096Z,87.68
2023-02-11T06:37:39.133Z,87.78
2023-02-11T06:40:06.218Z,87.68
2023-02-11T06:42:32.716Z,87.72
2023-02-11T06:44:59.088Z,87.90
2023-02-11T06:47:25.475Z,87.74
2023-02-11T06:49:51.888Z,88.01
2023-02-11T06:52:18.283Z,87.78
2023-02-11T06:54:44.654Z,87.98
2023-02-11T06:57:11.089Z,88.31
2023-02-11T06:59:37.474Z,88.13
2023-02-11T07:02:03.884Z,88.21
2023-02-11T07:04:30.299Z,88.08
2023-02-11T07:06:56.661Z,87.98
2023-02-11T07:09:23.031Z,87.83
2023-02-11T07:11:49.397Z,87.77
2023-02-11T07:14:15.834Z,87.88
2023-02-11T07:16:42.205Z,88.11
2023-02-11T07:19:08.580Z,88.37
2023-02-11T07:21:35.055Z,88.09
2023-02-11T07:24:02.023Z,87.88
2023-02-11T07:26:29.089Z,87.65
2023-02-11T07:28:55.816Z,87.81
2023-02-11T07:31:26.506Z,88.19
2023-02-11T07:33:55.069Z,87.85
2023-02-11T07:36:21.787Z,88.06
2023-02-11T07:38:48.381Z,87.67
2023-02-11T07:41:17.954Z,87.85
2023-02-11T07:43:44.779Z,87.91
2023-02-11T07:46:13.997Z,87.58
2023-02-11T07:48:40.478Z,87.39
2023-02-11T07:51:24.309Z,87.49
2023-02-11T07:53:52.004Z,87.18
2023-02-11T07:56:20.358Z,87.14
2023-02-11T07:58:46.812Z,87.46
2023-02-11T08:01:17.139Z,87.26
2023-02-11T08:03:43.594Z,87.55
2023-02-11T08:06:15.233Z,87.40
2023-02-11T08:08:42.644Z,86.98
2023-02-11T08:11:11.093Z,87.16
2023-02-11T08:13:37.640Z,87.31
2023-02-11T08:16:04.874Z,87.58
2023-02-11T08:18:32.251Z,87.69
2023-02-11T08:21:09.342Z,87.09
2023-02-11T08:23:36.995Z,87.26
2023-02-11T08:26:09.162Z,87.52
2023-02-11T08:28:37.352Z,87.27
2023-02-11T08:31:08.787Z,87.14
2023-02-11T08:33:35.814Z,86.95
2023-02-11T08:36:08.314Z,87.15
2023-02-11T08:38:34.762Z,87.07
2023-02-11T08:41:01.172Z,86.93
2023-02-11T08:43:27.580Z,87.14
2023-02-11T08:45:54.216Z,87.03
2023-02-11T08:48:20.692Z,86.92
2023-02-11T08:50:47.181Z,87.07
2023-02-11T08:53:13.546Z,86.92
2023-02-11T08:55:39.901Z,86.79
2023-02-11T08:58:06.261Z,86.66
2023-02-11T09:00:32.638Z,86.50
2023-02-11T09:02:59.056Z,86.78
2023-02-11T09:05:25.473Z,86.44
2023-02-11T09:07:51.918Z,86.64
2023-02-11T09:10:18.903Z,86.29
2023-02-11T09:12:45.267Z,86.67
2023-02-11T09:15:11.633Z,86.34
2023-02-11T09:17:37.988Z,86.13
2023-02-11T09:20:04.746Z,86.19
2023-02-11T09:22:31.137Z,86.27
2023-02-11T09:24:57.516Z,86.25
2023-02-11T09:27:23.877Z,86.27
2023-02-11T09:29:50.416Z,86.21
2023-02-11T09:32:16.903Z,86.18
2023-02-11T09:34:43.381Z,86.23
2023-02-11T09:37:09.890Z,86.69
2023-02-11T09:39:36.309Z,86.37
2023-02-11T09:42:05.318Z,86.20
2023-02-11T09:44:34.036Z,86.42
2023-02-11T09:47:17.351Z,86.28
2023-02-11T09:49:50.421Z,86.30
2023-02-11T09:52:40.386Z,85.85
2023-02-11T09:55:18.588Z,85.85
2023-02-11T09:57:45.112Z,86.10
2023-02-11T10:00:23.313Z,85.95
2023-02-11T10:03:14.733Z,85.91
2023-02-11T10:06:03.681Z,86.06
2023-02-11T10:08:58.992Z,85.87
2023-02-11T10:11:36.489Z,85.35
2023-02-11T10:14:27.910Z,85.76
2023-02-11T10:17:25.206Z,85.51
2023-02-11T10:19:57.762Z,85.21
2023-02-11T10:22:37.480Z,85.37
2023-02-11T10:25:21.668Z,85.79
2023-02-11T10:27:49.564Z,85.27
2023-02-11T10:30:26.418Z,85.02
2023-02-11T10:33:25.397Z,85.25
2023-02-11T10:35:51.802Z,85.00
2023-02-11T10:38:18.372Z,84.91
2023-02-11T10:40:45.718Z,85.22
2023-02-11T10:43:15.279Z,85.17
2023-02-11T10:45:50.687Z,85.00
2023-02-11T10:48:51.704Z,84.76
2023-02-11T10:51:23.775Z,85.18
2023-02-11T10:54:05.344Z,85.61
2023-02-11T10:56:41.026Z,84.64
2023-02-11T10:59:14.350Z,84.87
2023-02-11T11:01:46.127Z,85.11
2023-02-11T11:04:34.132Z,84.71
2023-02-11T11:07:22.782Z,85.02
2023-02-11T11:09:59.479Z,85.10
2023-02-11T11:12:25.804Z,85.10
2023-02-11T11:14:55.914Z,85.42
2023-02-11T11:17:22.346Z,85.55
2023-02-11T11:19:48.713Z,85.40
2023-02-11T11:22:22.485Z,84.73
2023-02-11T11:24:55.148Z,85.07
2023-02-11T11:27:24.400Z,85.30
2023-02-11T11:29:55.201Z,85.17
2023-02-11T11:32:29.648Z,84.97
2023-02-11T11:35:00.735Z,85.13
2023-02-11T11:37:34.076Z,84.94
2023-02-11T11:40:07.791Z,85.51
2023-02-11T11:42:36.816Z,84.74
2023-02-11T11:45:26.628Z,84.92
2023-02-11T11:48:03.097Z,85.48
2023-02-11T11:50:44.032Z,85.20
2023-02-11T11:53:31.471Z,85.04
2023-02-11T11:56:12.906Z,85.15
2023-02-11T11:58:39.459Z,85.42
2023-02-11T12:01:14.986Z,84.99
2023-02-11T12:04:10.870Z,85.27
2023-02-11T12:06:55.849Z,85.07
2023-02-11T12:09:39.068Z,84.85
2023-02-11T12:12:26.690Z,85.03
2023-02-11T12:15:20.354Z,84.98
2023-02-11T12:17:55.970Z,85.05
2023-02-11T12:20:31.334Z,85.59
2023-02-11T12:23:35.369Z,85.46
2023-02-11T12:26:12.392Z,85.44
2023-02-11T12:28:53.992Z,84.89
2023-02-11T12:31:35.272Z,85.42
2023-02-11T12:34:26.573Z,84.92
2023-02-11T12:37:20.047Z,85.60
2023-02-11T12:39:51.126Z,85.32
2023-02-11T12:42:55.130Z,84.60
2023-02-11T12:46:00.622Z,84.79
2023-02-11T12:48:43.409Z,84.77
2023-02-11T12:51:19.632Z,85.17
2023-02-11T12:54:21.273Z,84.97
2023-02-11T12:57:14.969Z,84.72
2023-02-11T12:59:51.941Z,83.99
2023-02-11T13:03:00.823Z,84.69
2023-02-11T13:05:46.179Z,84.91
2023-02-11T13:08:49.929Z,84.27
2023-02-11T13:11:34.704Z,84.33
2023-02-11T13:14:06.419Z,83.77
2023-02-11T13:16:38.250Z,83.86
2023-02-11T13:19:13.502Z,83.88
2023-02-11T13:21:48.159Z,83.52
2023-02-11T13:24:37.616Z,83.28
2023-02-11T13:27:11.449Z,83.29
2023-02-11T13:30:13.795Z,83.44
2023-02-11T13:33:04.680Z,82.71
2023-02-11T13:35:40.168Z,82.97
2023-02-11T13:38:19.141Z,83.36
2023-02-11T13:40:59.541Z,83.50
2023-02-11T13:43:30.559Z,83.42
2023-02-11T13:46:21.668Z,82.89
2023-02-11T13:48:52.481Z,83.69
2023-02-11T13:51:35.329Z,83.93
2023-02-11T13:54:03.180Z,83.24
2023-02-11T13:56:34.041Z,83.40
2023-02-11T13:59:04.025Z,82.81
2023-02-11T14:02:23.024Z,83.37
2023-02-11T14:05:23.246Z,83.24
2023-02-11T14:08:29.834Z,83.19
2023-02-11T14:10:57.661Z,82.54
2023-02-11T14:13:37.321Z,82.33
2023-02-11T14:16:17.102Z,81.59
2023-02-11T14:18:46.734Z,80.47
2023-02-11T14:21:22.857Z,81.01
2023-02-11T14:23:53.186Z,80.32
2023-02-11T14:26:20.086Z,80.79
2023-02-11T14:29:16.020Z,78.94
2023-02-11T14:32:05.348Z,79.95
2023-02-11T14:35:02.200Z,79.46
2023-02-11T14:38:00.582Z,80.10
2023-02-11T14:40:33.011Z,79.78
2023-02-11T14:43:24.302Z,79.26
2023-02-11T14:45:54.822Z,79.08
2023-02-11T14:48:29.770Z,79.21
2023-02-11T14:51:06.644Z,79.19
2023-02-11T14:53:34.269Z,78.60
2023-02-11T14:56:00.711Z,79.09
2023-02-11T14:58:29.971Z,79.36
2023-02-11T15:01:01.247Z,79.01
2023-02-11T15:03:35.309Z,78.63
2023-02-11T15:06:16.539Z,78.42
2023-02-11T15:08:47.176Z,78.88
2023-02-11T15:11:17.789Z,78.25
2023-02-11T15:13:47.430Z,78.64
2023-02-11T15:16:18.434Z,78.43
2023-02-11T15:18:48.381Z,78.63
2023-02-11T15:21:24.557Z,78.81
2023-02-11T15:24:05.970Z,78.91
2023-02-11T15:26:33.122Z,79.03
2023-02-11T15:29:00.124Z,78.59
2023-02-11T15:31:28.357Z,79.40
2023-02-11T15:33:55.142Z,78.49
2023-02-11T15:36:28.422Z,78.98
2023-02-11T15:39:17.325Z,78.90
2023-02-11T15:41:44.515Z,79.36
2023-02-11T15:44:31.242Z,78.75
2023-02-11T15:46:58.404Z,78.90
2023-02-11T15:49:26.122Z,79.20
2023-02-11T15:51:56.797Z,79.70
2023-02-11T15:54:27.439Z,79.77
2023-02-11T15:57:01.602Z,79.36
2023-02-11T15:59:38.761Z,79.89
2023-02-11T16:02:09.458Z,79.67
2023-02-11T16:04:36.323Z,79.66
2023-02-11T16:07:03.008Z,79.59
2023-02-11T16:09:34.959Z,80.06
2023-02-11T16:12:18.644Z,80.34
2023-02-11T16:14:45.077Z,80.41
2023-02-11T16:17:25.085Z,79.98
2023-02-11T16:19:53.517Z,80.25
2023-02-11T16:22:24.894Z,79.77
2023-02-11T16:24:54.002Z,80.20
2023-02-11T16:27:39.586Z,80.30
2023-02-11T16:30:21.722Z,80.24
2023-02-11T16:32:48.091Z,81.19
2023-02-11T16:35:14.436Z,81.04
2023-02-11T16:37:40.768Z,81.49
2023-02-11T16:40:07.949Z,81.00
2023-02-11T16:42:34.303Z,81.46
2023-02-11T16:45:00.723Z,81.37
2023-02-11T16:47:28.318Z,81.61
2023-02-11T16:49:56.028Z,81.92
2023-02-11T16:52:23.078Z,82.30
2023-02-11T16:54:51.353Z,82.29
2023-02-11T16:57:21.101Z,82.07
2023-02-11T16:59:48.007Z,81.77
2023-02-11T17:02:32.742Z,82.40
2023-02-11T17:05:01.726Z,82.30
2023-02-11T17:07:28.772Z,82.45
2023-02-11T17:09:56.037Z,82.84
2023-02-11T17:12:25.242Z,82.49
2023-02-11T17:14:52.274Z,82.37
2023-02-11T17:17:18.663Z,82.28
2023-02-11T17:19:45.023Z,81.89
2023-02-11T17:22:11.904Z,81.93
2023-02-11T17:24:38.238Z,82.39
2023-02-11T17:27:04.700Z,82.17
2023-02-11T17:29:31.140Z,82.54
2023-02-11T17:31:57.540Z,82.64
2023-02-11T17:34:24.123Z,82.22
2023-02-11T17:36:50.695Z,82.47
2023-02-11T17:39:17.079Z,82.79
2023-02-11T17:41:43.467Z,82.46
2023-02-11T17:44:12.067Z,82.70
2023-02-11T17:46:38.420Z,83.06
2023-02-11T17:49:04.851Z,83.14
2023-02-11T17:51:33.930Z,82.98
2023-02-11T17:54:03.536Z,83.36
2023-02-11T17:56:33.107Z,82.88
2023-02-11T17:58:59.552Z,83.31
2023-02-11T18:01:30.953Z,83.45
2023-02-11T18:03:57.680Z,83.13
2023-02-11T18:06:24.476Z,83.50
2023-02-11T18:08:50.907Z,83.24
2023-02-11T18:11:17.693Z,83.23
2023-02-11T18:13:45.247Z,83.51
2023-02-11T18:16:15.666Z,83.82
2023-02-11T18:18:43.361Z,83.18
2023-02-11T18:21:15.505Z,83.23
2023-02-11T18:23:42.727Z,83.63
2023-02-11T18:26:10.904Z,83.04
2023-02-11T18:28:38.300Z,83.66
2023-02-11T18:31:05.823Z,83.28
2023-02-11T18:33:32.846Z,83.48
2023-02-11T18:35:59.201Z,83.16
2023-02-11T18:38:25.574Z,83.23
2023-02-11T18:40:52.337Z,83.44
2023-02-11T18:43:19.846Z,83.42
2023-02-11T18:45:47.890Z,83.47
2023-02-11T18:48:15.277Z,82.91
2023-02-11T18:50:44.378Z,83.52
2023-02-11T18:53:12.853Z,83.26
2023-02-11T18:55:40.811Z,83.24
2023-02-11T18:58:07.225Z,83.56
2023-02-11T19:00:34.660Z,83.32
2023-02-11T19:03:01.277Z,83.60
2023-02-11T19:05:29.799Z,83.74
2023-02-11T19:07:56.455Z,83.67
2023-02-11T19:10:23.797Z,83.53
2023-02-11T19:12:53.630Z,83.47
2023-02-11T19:15:19.987Z,83.83
2023-02-11T19:17:46.306Z,84.08
2023-02-11T19:20:12.678Z,83.90
2023-02-11T19:22:39.006Z,83.77
2023-02-11T19:25:05.775Z,84.57
2023-02-11T19:27:32.188Z,83.90
2023-02-11T19:29:58.582Z,83.86
2023-02-11T19:32:24.991Z,84.49
2023-02-11T19:34:52.048Z,84.57
2023-02-11T19:37:18.600Z,84.64
2023-02-11T19:39:45.253Z,84.60
2023-02-11T19:42:12.452Z,84.48
2023-02-11T19:44:38.944Z,84.87
2023-02-11T19:47:06.766Z,84.25
2023-02-11T19:49:33.641Z,84.41
2023-02-11T19:52:00.054Z,84.47
2023-02-11T19:54:28.951Z,84.63
2023-02-11T19:56:55.671Z,84.77
2023-02-11T19:59:22.024Z,84.94
2023-02-11T20:01:48.980Z,84.90
2023-02-11T20:04:18.231Z,85.08
2023-02-11T20:06:45.220Z,85.06
2023-02-11T20:09:14.394Z,84.76
2023-02-11T20:11:41.484Z,85.44
2023-02-11T20:14:10.405Z,85.01
2023-02-11T20:16:47.972Z,84.84
2023-02-11T20:19:21.138Z,85.46
2023-02-11T20:21:50.771Z,85.09
2023-02-11T20:24:18.723Z,85.29
2023-02-11T20:26:47.954Z,85.55
2023-02-11T20:29:15.959Z,85.56
2023-02-11T20:31:43.011Z,85.36
2023-02-11T20:34:10.741Z,85.61
2023-02-11T20:36:38.622Z,85.31
2023-02-11T20:39:05.874Z,85.43
2023-02-11T20:41:34.533Z,85.37
2023-02-11T20:44:03.882Z,85.75
2023-02-11T20:46:33.118Z,85.76
2023-02-11T20:48:59.936Z,85.85
2023-02-11T20:51:30.384Z,85.59
2023-02-11T20:53:57.498Z,85.44
2023-02-11T20:56:29.865Z,85.87
2023-02-11T20:58:58.172Z,86.05
2023-02-11T21:01:27.941Z,85.32
2023-02-11T21:03:57.566Z,85.38
2023-02-11T21:06:30.282Z,85.63
2023-02-11T21:08:57.428Z,85.75
2023-02-11T21:11:24.051Z,85.26
2023-02-11T21:13:51.046Z,85.84
2023-02-11T21:16:22.516Z,86.06
2023-02-11T21:18:50.224Z,85.98
2023-02-11T21:21:18.790Z,86.39
2023-02-11T21:23:45.636Z,85.88
2023-02-11T21:26:12.494Z,86.05
2023-02-11T21:28:40.956Z,86.41
2023-02-11T21:31:07.815Z,86.09
2023-02-11T21:33:34.568Z,85.94
2023-02-11T21:36:04.529Z,86.40
2023-02-11T21:38:31.232Z,86.64
2023-02-11T21:41:03.848Z,86.40
2023-02-11T21:43:30.189Z,86.70
2023-02-11T21:45:57.107Z,86.62
2023-02-11T21:48:25.540Z,86.60
2023-02-11T21:50:52.866Z,86.84
2023-02-11T21:53:19.656Z,86.58
2023-02-11T21:55:45.972Z,86.26
2023-02-11T21:58:13.284Z,86.34
2023-02-11T22:00:40.231Z,86.56
2023-02-11T22:03:06.681Z,86.56
2023-02-11T22:05:33.052Z,86.39
2023-02-11T22:07:59.440Z,86.75
2023-02-11T22:10:25.781Z,86.38
2023-02-11T22:12:52.098Z,86.74
2023-02-11T22:15:18.503Z,86.40
2023-02-11T22:17:44.965Z,86.62
2023-02-11T22:20:11.681Z,85.81
2023-02-11T22:22:38.003Z,86.48
2023-02-11T22:25:04.586Z,85.96
2023-02-11T22:27:30.939Z,86.50
2023-02-11T22:29:57.291Z,86.21
2023-02-11T22:32:23.941Z,86.63
2023-02-11T22:34:53.104Z,85.69
2023-02-11T22:37:19.719Z,85.79
2023-02-11T22:39:46.277Z,85.62
2023-02-11T22:42:12.612Z,86.12
2023-02-11T22:44:38.981Z,85.82
2023-02-11T22:47:05.370Z,86.53
2023-02-11T22:49:33.065Z,86.01
2023-02-11T22:51:59.698Z,86.47
2023-02-11T22:54:26.174Z,86.29
2023-02-11T22:56:53.182Z,86.12
2023-02-11T22:59:20.706Z,86.20
2023-02-11T23:01:47.443Z,85.64
2023-02-11T23:04:16.899Z,86.08
2023-02-11T23:06:43.904Z,86.11
2023-02-11T23:09:12.189Z,85.34
2023-02-11T23:11:39.246Z,85.98
2023-02-11T23:14:08.020Z,85.88
2023-02-11T23:16:34.698Z,85.69
2023-02-11T23:19:05.469Z,86.09
2023-02-11T23:21:35.166Z,85.67
2023-02-11T23:24:05.720Z,85.54
2023-02-11T23:26:32.391Z,85.96
2023-02-11T23:28:59.748Z,85.29
2023-02-11T23:31:37.385Z,85.78
2023-02-11T23:34:04.215Z,85.98
2023-02-11T23:36:30.653Z,85.58
2023-02-11T23:38:57.071Z,85.42
2023-02-11T23:41:24.457Z,85.75
2023-02-11T23:43:52.743Z,85.79
2023-02-11T23:46:21.675Z,85.86
2023-02-11T23:48:49.494Z,85.80
2023-02-11T23:51:15.969Z,86.01
2023-02-11T23:53:42.443Z,86.00
2023-02-11T23:56:11.070Z,85.58
2023-02-11T23:58:37.460Z,85.61
